Time;durP1;ratioP1;P1;durP2;ratioP2;P2;SDS_P1;SDS_P2;PMS_P1;PMS_P2;Temp;Humidity;BMP_temperature;BMP_pressure;BME280_temperature;BME280_humidity;BME280_pressure;Samples;Min_cycle;Max_cycle;Signal;HPM_P1;HPM_P2
2022/09/12 00:01:19;;;;;;;0.50;0.40;;;13.40;99.90;;;;;;5054263;28;20503;-75
2022/09/12 00:03:46;;;;;;;0.50;0.40;;;13.40;99.90;;;;;;5054320;28;20446;-76
2022/09/12 00:06:17;;;;;;;0.50;0.40;;;13.30;99.90;;;;;;5053625;28;20441;-74
2022/09/12 00:08:44;;;;;;;0.50;0.40;;;13.30;99.90;;;;;;5054274;28;20539;-75
2022/09/12 00:11:12;;;;;;;0.50;0.40;;;13.30;99.90;;;;;;5053972;28;20468;-76
2022/09/12 00:13:41;;;;;;;0.50;0.40;;;13.20;99.90;;;;;;5054426;28;20445;-76
2022/09/12 00:16:07;;;;;;;0.50;0.40;;;13.20;99.90;;;;;;5053732;28;20825;-76
2022/09/12 00:18:34;;;;;;;1.27;1.27;;;13.20;99.90;;;;;;5053657;28;20441;-75
2022/09/12 00:21:04;;;;;;;1.53;1.43;;;13.20;99.90;;;;;;5053650;28;20558;-75
2022/09/12 00:23:33;;;;;;;0.60;0.40;;;13.20;99.90;;;;;;5054302;28;20443;-75
2022/09/12 00:26:00;;;;;;;0.50;0.40;;;13.30;99.90;;;;;;5053725;28;20441;-75
2022/09/12 00:28:26;;;;;;;0.50;0.40;;;13.30;99.90;;;;;;5054103;28;20881;-75
2022/09/12 00:30:53;;;;;;;0.50;0.40;;;13.30;99.90;;;;;;5053296;28;20444;-75
2022/09/12 00:33:20;;;;;;;0.50;0.40;;;13.20;99.90;;;;;;5053525;28;20835;-75
2022/09/12 00:35:49;;;;;;;0.50;0.40;;;13.20;99.90;;;;;;5053707;28;20810;-74
2022/09/12 00:38:17;;;;;;;0.87;0.83;;;13.20;99.90;;;;;;5053921;28;20809;-75
2022/09/12 00:40:46;;;;;;;0.50;0.40;;;13.20;99.90;;;;;;5053121;28;20930;-75
2022/09/12 00:43:14;;;;;;;0.50;0.40;;;13.10;99.90;;;;;;5053637;28;20441;-75
2022/09/12 00:45:42;;;;;;;0.50;0.40;;;13.10;99.90;;;;;;5053262;28;21027;-76
2022/09/12 00:48:21;;;;;;;0.70;0.70;;;13.00;99.90;;;;;;5053689;28;20452;-76
2022/09/12 00:50:49;;;;;;;0.50;0.40;;;13.00;99.90;;;;;;5053504;28;20830;-75
2022/09/12 00:53:16;;;;;;;2.03;1.90;;;13.00;99.90;;;;;;5053230;28;20433;-75
2022/09/12 00:55:47;;;;;;;0.50;0.40;;;13.00;99.90;;;;;;5053144;28;20464;-75
2022/09/12 00:58:19;;;;;;;0.60;0.60;;;13.00;99.90;;;;;;5053532;28;20520;-76
2022/09/12 01:00:47;;;;;;;0.50;0.40;;;13.10;99.90;;;;;;5053044;28;20418;-75
2022/09/12 01:03:17;;;;;;;0.60;0.60;;;13.10;99.90;;;;;;5052641;28;20815;-75
2022/09/12 01:05:50;;;;;;;0.50;0.40;;;13.10;99.90;;;;;;5052499;28;20521;-75
2022/09/12 01:08:17;;;;;;;0.50;0.40;;;13.10;99.90;;;;;;5052768;28;20433;-75
2022/09/12 01:10:46;;;;;;;0.50;0.40;;;13.10;99.90;;;;;;5053023;28;20447;-76
2022/09/12 01:13:14;;;;;;;0.50;0.40;;;13.10;99.90;;;;;;5053140;28;20443;-75
2022/09/12 01:15:41;;;;;;;0.50;0.40;;;13.10;99.90;;;;;;5052842;28;20436;-76
2022/09/12 01:18:18;;;;;;;0.50;0.40;;;13.10;99.90;;;;;;5052705;28;20443;-76
2022/09/12 01:21:16;;;;;;;0.50;0.40;;;13.10;99.90;;;;;;5052768;28;20447;-76
2022/09/12 01:24:33;;;;;;;0.50;0.40;;;13.10;99.90;;;;;;5010622;28;20435;-76
2022/09/12 01:27:33;;;;;;;3.30;2.40;;;13.20;99.90;;;;;;5052447;28;20433;-75
2022/09/12 01:30:20;;;;;;;0.50;0.40;;;13.20;99.90;;;;;;5052765;28;20433;-76
2022/09/12 01:33:11;;;;;;;0.50;0.40;;;13.20;99.90;;;;;;5052593;28;20449;-76
2022/09/12 01:35:47;;;;;;;0.50;0.40;;;13.10;99.90;;;;;;5052313;28;20439;-74
2022/09/12 01:38:24;;;;;;;1.17;1.17;;;13.10;99.90;;;;;;5052719;28;20806;-75
2022/09/12 01:41:00;;;;;;;0.50;0.40;;;13.10;99.90;;;;;;5052661;28;20461;-76
2022/09/12 01:43:34;;;;;;;0.50;0.40;;;13.10;99.90;;;;;;5051899;28;20443;-76
2022/09/12 01:46:09;;;;;;;0.50;0.40;;;13.10;99.90;;;;;;5051900;28;20444;-75
2022/09/12 01:48:39;;;;;;;0.50;0.40;;;13.10;99.90;;;;;;5052222;28;20441;-75
2022/09/12 01:51:11;;;;;;;0.70;0.70;;;13.10;99.90;;;;;;5052402;28;20549;-76
2022/09/12 01:53:42;;;;;;;0.50;0.40;;;13.10;99.90;;;;;;5052046;28;20447;-76
2022/09/12 01:56:13;;;;;;;0.70;0.70;;;13.10;99.90;;;;;;5051619;28;20502;-75
2022/09/12 01:58:45;;;;;;;2.33;2.23;;;13.00;99.90;;;;;;5052205;28;20429;-73
2022/09/12 02:01:16;;;;;;;0.50;0.40;;;13.00;99.90;;;;;;5051900;28;21015;-76
2022/09/12 02:03:47;;;;;;;1.03;1.03;;;13.00;99.90;;;;;;5052215;28;20523;-76
2022/09/12 02:06:19;;;;;;;0.73;0.73;;;13.00;99.90;;;;;;5050940;28;21096;-75
2022/09/12 02:08:51;;;;;;;0.50;0.40;;;13.00;99.90;;;;;;5051763;28;21064;-75
2022/09/12 02:11:19;;;;;;;0.50;0.40;;;13.00;99.90;;;;;;5051642;28;20464;-76
2022/09/12 02:13:53;;;;;;;0.50;0.40;;;12.90;99.90;;;;;;5092572;22;20493;-79
2022/09/12 02:16:29;;;;;;;0.50;0.40;;;12.90;99.90;;;;;;5040698;28;20800;-78
2022/09/12 02:19:00;;;;;;;0.50;0.40;;;12.90;99.90;;;;;;5032308;28;20418;-78
2022/09/12 02:21:31;;;;;;;0.50;0.40;;;12.90;99.90;;;;;;5038884;28;20442;-77
2022/09/12 02:24:02;;;;;;;0.50;0.40;;;12.90;99.90;;;;;;5052236;28;20465;-78
2022/09/12 02:26:34;;;;;;;0.50;0.40;;;12.80;99.90;;;;;;5052061;28;20424;-77
2022/09/12 02:29:01;;;;;;;0.50;0.40;;;12.90;99.90;;;;;;5051434;28;20479;-77
2022/09/12 02:31:37;;;;;;;0.50;0.40;;;12.80;99.90;;;;;;5051638;28;20451;-76
2022/09/12 02:34:13;;;;;;;0.50;0.40;;;12.80;99.90;;;;;;5051792;28;20543;-76
2022/09/12 02:36:53;;;;;;;1.00;1.00;;;12.80;99.90;;;;;;5051864;28;20420;-77
2022/09/12 02:39:20;;;;;;;1.20;0.70;;;12.70;99.90;;;;;;5051801;28;20955;-77
2022/09/12 02:41:48;;;;;;;0.50;0.40;;;12.70;99.90;;;;;;5051763;28;20483;-77
2022/09/12 02:44:14;;;;;;;0.50;0.40;;;12.70;99.90;;;;;;5051422;28;20452;-75
2022/09/12 02:46:46;;;;;;;0.50;0.40;;;12.70;99.90;;;;;;5052060;28;20444;-75
2022/09/12 02:49:13;;;;;;;1.47;1.47;;;12.60;99.90;;;;;;5051636;28;20439;-77
2022/09/12 02:51:41;;;;;;;0.50;0.40;;;12.50;99.90;;;;;;5051407;28;20432;-75
2022/09/12 02:54:08;;;;;;;0.50;0.40;;;12.40;99.90;;;;;;5051381;28;21019;-75
2022/09/12 02:56:36;;;;;;;4.73;4.50;;;12.50;99.90;;;;;;5051901;28;20551;-74
2022/09/12 02:59:05;;;;;;;0.50;0.40;;;12.60;99.90;;;;;;5051473;28;20464;-75
2022/09/12 03:01:49;;;;;;;0.50;0.40;;;12.60;99.90;;;;;;5051779;28;20535;-78
2022/09/12 03:04:31;;;;;;;0.50;0.30;;;12.60;99.90;;;;;;5051015;28;20428;-75
2022/09/12 03:07:11;;;;;;;0.50;0.40;;;12.60;99.90;;;;;;5051382;28;20459;-78
2022/09/12 03:09:45;;;;;;;0.50;0.40;;;12.50;99.90;;;;;;5052087;28;20428;-77
2022/09/12 03:12:23;;;;;;;0.50;0.40;;;12.50;99.90;;;;;;5051301;28;20977;-78
2022/09/12 03:15:10;;;;;;;0.50;0.40;;;12.40;99.90;;;;;;5051144;28;20474;-75
2022/09/12 03:17:50;;;;;;;0.50;0.40;;;12.40;99.90;;;;;;5051726;28;20420;-76
2022/09/12 03:20:28;;;;;;;0.50;0.40;;;12.40;99.90;;;;;;5051418;28;20444;-78
2022/09/12 03:22:58;;;;;;;0.50;0.40;;;12.40;99.90;;;;;;5051129;28;20476;-77
2022/09/12 03:25:30;;;;;;;0.50;0.40;;;12.40;99.90;;;;;;5052831;28;20509;-78
2022/09/12 03:28:00;;;;;;;0.50;0.40;;;12.30;99.90;;;;;;5055193;28;20436;-76
2022/09/12 03:30:27;;;;;;;0.50;0.40;;;12.30;99.90;;;;;;5055276;28;20443;-77
2022/09/12 03:32:55;;;;;;;10.13;4.73;;;12.40;99.90;;;;;;5055017;28;20498;-76
2022/09/12 03:35:24;;;;;;;0.50;0.40;;;12.40;99.90;;;;;;5054440;28;20916;-77
2022/09/12 03:37:52;;;;;;;0.90;0.90;;;12.40;99.90;;;;;;5055453;28;20480;-78
2022/09/12 03:40:19;;;;;;;0.50;0.40;;;12.50;99.90;;;;;;5055057;28;20441;-79
2022/09/12 03:42:46;;;;;;;2.87;2.77;;;12.50;99.90;;;;;;5054626;28;20483;-78
2022/09/12 03:45:15;;;;;;;0.50;0.40;;;12.50;99.90;;;;;;5055133;28;20520;-78
2022/09/12 03:47:42;;;;;;;0.50;0.40;;;12.50;99.90;;;;;;5054606;28;20465;-78
2022/09/12 03:50:10;;;;;;;0.50;0.40;;;12.30;99.90;;;;;;5054148;28;20470;-78
2022/09/12 03:52:37;;;;;;;0.50;0.40;;;12.30;99.90;;;;;;5054860;28;20535;-78
2022/09/12 03:55:05;;;;;;;0.50;0.40;;;12.20;99.90;;;;;;5054690;28;20445;-78
2022/09/12 03:57:32;;;;;;;0.50;0.40;;;12.20;99.90;;;;;;5054095;28;20993;-78
2022/09/12 03:59:59;;;;;;;0.50;0.40;;;12.20;99.90;;;;;;5054708;28;20934;-75
2022/09/12 04:02:25;;;;;;;0.50;0.40;;;12.20;99.90;;;;;;5054603;28;20483;-78
2022/09/12 04:04:52;;;;;;;2.65;2.45;;;12.20;99.90;;;;;;5054159;28;20504;-78
2022/09/12 04:07:20;;;;;;;4.30;4.10;;;12.20;99.90;;;;;;5054550;28;20191;-78
2022/09/12 04:09:47;;;;;;;0.50;0.40;;;12.20;99.90;;;;;;5054708;28;20447;-77
2022/09/12 04:12:14;;;;;;;0.50;0.40;;;12.20;99.90;;;;;;5054830;28;20564;-79
2022/09/12 04:14:41;;;;;;;0.80;0.80;;;12.20;99.90;;;;;;5054698;28;20426;-78
2022/09/12 04:17:08;;;;;;;0.50;0.40;;;12.30;99.90;;;;;;5055059;28;20441;-78
2022/09/12 04:19:35;;;;;;;0.50;0.40;;;12.30;99.90;;;;;;5054624;28;20537;-78
2022/09/12 04:22:02;;;;;;;0.50;0.40;;;12.30;99.90;;;;;;5054387;28;20498;-78
2022/09/12 04:24:30;;;;;;;0.50;0.40;;;12.20;99.90;;;;;;5053980;28;20839;-77
2022/09/12 04:26:57;;;;;;;0.50;0.40;;;12.30;99.90;;;;;;5054791;28;20865;-77
2022/09/12 04:29:24;;;;;;;0.50;0.40;;;12.20;99.90;;;;;;5054166;28;20838;-80
2022/09/12 04:31:51;;;;;;;0.50;0.40;;;12.20;99.90;;;;;;5054258;28;20527;-78
2022/09/12 04:34:18;;;;;;;0.50;0.40;;;12.20;99.90;;;;;;5053852;28;20281;-78
2022/09/12 04:36:45;;;;;;;0.50;0.40;;;12.10;99.90;;;;;;5053426;28;20465;-76
2022/09/12 04:39:12;;;;;;;0.50;0.40;;;12.10;99.90;;;;;;5055542;28;20445;-78
2022/09/12 04:41:41;;;;;;;0.50;0.40;;;12.00;99.90;;;;;;5054335;28;20516;-79
2022/09/12 04:44:11;;;;;;;0.50;0.40;;;12.00;99.90;;;;;;5053272;28;20477;-77
2022/09/12 04:46:39;;;;;;;0.50;0.40;;;12.00;99.90;;;;;;5053861;28;20440;-76
2022/09/12 04:49:07;;;;;;;0.50;0.40;;;12.00;99.90;;;;;;5053648;28;20448;-76
2022/09/12 04:51:36;;;;;;;0.50;0.40;;;12.00;99.90;;;;;;5053291;28;20483;-75
2022/09/12 04:54:05;;;;;;;0.50;0.40;;;12.10;99.90;;;;;;5053408;28;20460;-76
2022/09/12 04:56:33;;;;;;;0.50;0.40;;;12.20;99.90;;;;;;5053930;28;20473;-75
2022/09/12 04:59:01;;;;;;;0.50;0.40;;;12.10;99.90;;;;;;5053345;28;20868;-77
2022/09/12 05:01:29;;;;;;;0.50;0.40;;;12.10;99.90;;;;;;5053343;28;20439;-77
2022/09/12 05:03:58;;;;;;;0.50;0.40;;;12.20;99.90;;;;;;5053002;28;20475;-77
2022/09/12 05:06:27;;;;;;;0.50;0.40;;;12.20;99.90;;;;;;5052741;28;20445;-77
2022/09/12 05:08:56;;;;;;;0.50;0.40;;;12.10;99.90;;;;;;5052778;28;20441;-76
2022/09/12 05:11:25;;;;;;;0.50;0.40;;;12.10;99.90;;;;;;5052854;28;20441;-77
2022/09/12 05:13:52;;;;;;;0.50;0.40;;;12.20;99.90;;;;;;5051969;28;20483;-78
2022/09/12 05:16:21;;;;;;;0.50;0.40;;;12.20;99.90;;;;;;5053007;28;20828;-76
2022/09/12 05:18:49;;;;;;;0.50;0.40;;;12.30;99.90;;;;;;5052529;28;20432;-77
2022/09/12 05:21:17;;;;;;;0.50;0.40;;;12.40;99.90;;;;;;5052278;28;20487;-76
2022/09/12 05:23:46;;;;;;;3.80;2.25;;;12.50;99.90;;;;;;5052476;28;20477;-77
2022/09/12 05:26:15;;;;;;;1.90;1.80;;;12.50;99.90;;;;;;5052115;28;20232;-78
2022/09/12 05:28:42;;;;;;;0.50;0.40;;;12.60;99.90;;;;;;5052501;28;20872;-77
2022/09/12 05:31:11;;;;;;;0.50;0.40;;;12.70;99.90;;;;;;5052867;28;20447;-77
2022/09/12 05:33:41;;;;;;;0.87;0.87;;;12.80;99.90;;;;;;5051685;28;20464;-78
2022/09/12 05:36:11;;;;;;;0.50;0.40;;;12.90;99.90;;;;;;5052020;28;20984;-78
2022/09/12 05:38:38;;;;;;;0.50;0.40;;;13.00;99.90;;;;;;5052208;28;20436;-76
2022/09/12 05:41:06;;;;;;;0.50;0.40;;;13.20;99.90;;;;;;5052052;28;20514;-78
2022/09/12 05:43:33;;;;;;;0.50;0.40;;;13.30;99.90;;;;;;5052193;28;20485;-77
2022/09/12 05:46:03;;;;;;;0.50;0.40;;;13.40;99.90;;;;;;5051663;28;20537;-77
2022/09/12 05:48:31;;;;;;;0.50;0.40;;;13.50;99.90;;;;;;5052256;28;20445;-76
2022/09/12 05:51:05;;;;;;;0.50;0.40;;;13.70;99.90;;;;;;5051645;28;20475;-77
2022/09/12 05:53:33;;;;;;;0.50;0.40;;;13.90;99.90;;;;;;5051597;28;21202;-77
2022/09/12 05:56:08;;;;;;;0.50;0.40;;;14.10;99.90;;;;;;5051531;28;20443;-78
2022/09/12 05:58:36;;;;;;;0.50;0.40;;;14.40;99.90;;;;;;5052116;28;20424;-77
2022/09/12 06:01:07;;;;;;;0.50;0.40;;;14.70;99.90;;;;;;5051635;28;20440;-75
2022/09/12 06:03:34;;;;;;;0.50;0.40;;;14.90;99.90;;;;;;5051980;28;20511;-77
2022/09/12 06:06:04;;;;;;;0.50;0.40;;;15.10;99.90;;;;;;5051007;28;20534;-77
2022/09/12 06:08:32;;;;;;;0.50;0.30;;;15.30;99.90;;;;;;5051937;28;20759;-76
2022/09/12 06:11:01;;;;;;;0.50;0.37;;;15.50;99.90;;;;;;5051947;28;20531;-78
2022/09/12 06:13:28;;;;;;;0.50;0.40;;;15.70;99.90;;;;;;5051310;28;20528;-77
2022/09/12 06:15:55;;;;;;;0.50;0.40;;;15.90;99.90;;;;;;5051180;28;20445;-76
2022/09/12 06:18:21;;;;;;;0.50;0.40;;;16.20;99.90;;;;;;5051476;28;20437;-78
2022/09/12 06:20:48;;;;;;;1.50;1.50;;;16.40;99.90;;;;;;5051736;28;20961;-77
2022/09/12 06:23:16;;;;;;;0.50;0.30;;;16.60;99.90;;;;;;5051481;28;20521;-78
2022/09/12 06:25:48;;;;;;;1.90;1.80;;;16.70;99.90;;;;;;5050818;28;20902;-79
2022/09/12 06:28:16;;;;;;;0.50;0.40;;;16.80;99.90;;;;;;5051569;28;20456;-77
2022/09/12 06:30:43;;;;;;;0.50;0.30;;;16.90;99.90;;;;;;5051297;28;20469;-78
2022/09/12 06:33:09;;;;;;;0.50;0.30;;;17.10;99.90;;;;;;5051154;28;20456;-75
2022/09/12 06:35:37;;;;;;;0.50;0.40;;;17.30;99.90;;;;;;5051337;28;20457;-78
2022/09/12 06:38:04;;;;;;;0.50;0.40;;;17.40;99.90;;;;;;5051399;28;20445;-77
2022/09/12 06:40:33;;;;;;;0.50;0.40;;;17.60;99.90;;;;;;5050722;28;20964;-75
2022/09/12 06:42:59;;;;;;;0.50;0.40;;;18.00;99.90;;;;;;5050679;28;20576;-78
2022/09/12 06:45:26;;;;;;;1.07;0.97;;;18.40;99.90;;;;;;5051426;28;20449;-77
2022/09/12 06:47:55;;;;;;;0.50;0.40;;;18.90;99.90;;;;;;5051502;28;20525;-78
2022/09/12 06:50:22;;;;;;;0.50;0.30;;;19.30;99.90;;;;;;5051174;28;20433;-78
2022/09/12 06:52:49;;;;;;;0.50;0.30;;;20.00;99.90;;;;;;5050974;28;20467;-75
2022/09/12 06:55:17;;;;;;;0.50;0.30;;;20.70;99.90;;;;;;5050366;28;20958;-77
2022/09/12 06:57:45;;;;;;;0.60;0.60;;;21.20;99.90;;;;;;5051154;28;20444;-75
2022/09/12 07:00:13;;;;;;;0.50;0.37;;;21.30;99.90;;;;;;5050818;28;20519;-75
2022/09/12 07:02:40;;;;;;;0.50;0.40;;;21.80;99.90;;;;;;5050736;28;20469;-75
2022/09/12 07:05:09;;;;;;;0.50;0.30;;;22.00;99.90;;;;;;5050471;28;20535;-78
2022/09/12 07:07:36;;;;;;;0.50;0.30;;;22.20;99.90;;;;;;5051583;28;20503;-75
2022/09/12 07:10:05;;;;;;;0.50;0.30;;;22.40;99.90;;;;;;5050681;28;20543;-75
2022/09/12 07:12:32;;;;;;;0.50;0.30;;;22.50;99.90;;;;;;5050803;28;20477;-76
2022/09/12 07:15:00;;;;;;;1.37;1.23;;;22.50;99.90;;;;;;5050775;28;20443;-75
2022/09/12 07:17:27;;;;;;;0.50;0.30;;;22.40;99.90;;;;;;5051112;28;20437;-75
2022/09/12 07:19:54;;;;;;;0.50;0.30;;;22.10;99.90;;;;;;5050972;28;20448;-78
2022/09/12 07:22:21;;;;;;;0.50;0.40;;;22.00;99.90;;;;;;5050994;28;20457;-77
2022/09/12 07:24:49;;;;;;;1.83;1.73;;;21.90;99.90;;;;;;5049752;28;20519;-77
2022/09/12 07:27:16;;;;;;;0.50;0.30;;;21.80;99.90;;;;;;5050935;28;20445;-78
2022/09/12 07:29:43;;;;;;;0.50;0.30;;;21.50;99.90;;;;;;5051245;28;20441;-78
2022/09/12 07:32:11;;;;;;;0.50;0.30;;;21.10;99.90;;;;;;5050831;28;20461;-76
2022/09/12 07:34:38;;;;;;;0.50;0.40;;;21.10;99.90;;;;;;5049461;28;21003;-76
2022/09/12 07:37:04;;;;;;;0.50;0.30;;;21.00;99.90;;;;;;5051102;28;20441;-77
2022/09/12 07:39:32;;;;;;;0.50;0.30;;;21.00;99.90;;;;;;5050922;28;20441;-78
2022/09/12 07:41:59;;;;;;;0.50;0.30;;;21.00;99.90;;;;;;5050577;28;20441;-78
2022/09/12 07:44:26;;;;;;;0.50;0.37;;;21.00;99.90;;;;;;5050016;28;20483;-78
2022/09/12 07:46:52;;;;;;;0.50;0.30;;;20.90;99.90;;;;;;5050128;28;20443;-78
2022/09/12 07:49:21;;;;;;;0.50;0.30;;;20.90;99.90;;;;;;5050412;28;20447;-78
2022/09/12 07:51:47;;;;;;;0.50;0.37;;;20.90;99.90;;;;;;5050627;28;20540;-78
2022/09/12 07:54:14;;;;;;;0.50;0.30;;;20.80;99.90;;;;;;5050431;28;20444;-78
2022/09/12 07:56:41;;;;;;;0.50;0.30;;;20.90;99.90;;;;;;5050062;28;20511;-77
2022/09/12 07:59:09;;;;;;;0.50;0.33;;;21.00;99.90;;;;;;5050659;28;20439;-77
2022/09/12 08:01:35;;;;;;;0.50;0.40;;;21.20;99.90;;;;;;5050505;28;20449;-75
2022/09/12 08:04:03;;;;;;;1.20;1.10;;;21.40;99.90;;;;;;5049833;28;20568;-78
2022/09/12 08:06:34;;;;;;;0.50;0.30;;;21.60;99.90;;;;;;5050433;28;20437;-76
2022/09/12 08:09:01;;;;;;;0.50;0.40;;;21.70;99.90;;;;;;5051799;28;21004;-76
2022/09/12 08:11:29;;;;;;;0.60;0.60;;;21.80;99.90;;;;;;5050344;28;20433;-75
2022/09/12 08:13:57;;;;;;;1.77;1.67;;;21.70;99.90;;;;;;5054875;28;20564;-76
2022/09/12 08:16:25;;;;;;;1.00;0.80;;;21.70;99.90;;;;;;5053902;28;20445;-75
2022/09/12 08:18:52;;;;;;;0.50;0.40;;;21.50;99.90;;;;;;5053507;28;20443;-78
2022/09/12 08:21:22;;;;;;;0.50;0.30;;;21.60;99.90;;;;;;5053204;28;20479;-78
2022/09/12 08:23:55;;;;;;;0.50;0.30;;;21.90;99.90;;;;;;5053755;28;20990;-76
2022/09/12 08:26:22;;;;;;;1.03;0.93;;;22.30;99.90;;;;;;5053688;28;20536;-76
2022/09/12 08:28:50;;;;;;;0.50;0.40;;;22.80;99.90;;;;;;5053490;28;20796;-78
2022/09/12 08:31:19;;;;;;;0.50;0.40;;;23.40;99.90;;;;;;5053737;28;20443;-77
2022/09/12 08:33:45;;;;;;;0.50;0.40;;;24.00;99.90;;;;;;5053203;28;20454;-78
2022/09/12 08:36:14;;;;;;;0.50;0.30;;;25.00;99.90;;;;;;5052721;28;20437;-76
2022/09/12 08:38:43;;;;;;;0.67;0.67;;;26.00;99.90;;;;;;5053700;28;20437;-76
2022/09/12 08:41:18;;;;;;;0.50;0.30;;;26.80;99.90;;;;;;5053450;28;20440;-75
2022/09/12 08:44:13;;;;;;;0.50;0.30;;;26.80;99.90;;;;;;5053178;28;20482;-76
2022/09/12 08:46:48;;;;;;;0.50;0.40;;;27.50;99.90;;;;;;5027418;28;20573;-77
2022/09/12 08:49:25;;;;;;;0.50;0.30;;;27.70;99.90;;;;;;5053276;28;20428;-78
2022/09/12 08:51:52;;;;;;;0.50;0.30;;;27.10;99.90;;;;;;5052874;28;20567;-76
2022/09/12 08:54:23;;;;;;;0.50;0.30;;;26.50;99.90;;;;;;5052730;28;20655;-77
2022/09/12 08:56:53;;;;;;;0.50;0.30;;;26.10;99.90;;;;;;5052667;28;20452;-76
2022/09/12 08:59:20;;;;;;;0.50;0.30;;;25.80;99.90;;;;;;5053167;28;20433;-77
2022/09/12 09:01:52;;;;;;;0.50;0.30;;;25.90;99.90;;;;;;5052741;28;20447;-77
2022/09/12 09:04:37;;;;;;;0.50;0.30;;;26.20;99.90;;;;;;5052572;28;20540;-77
2022/09/12 09:07:29;;;;;;;0.50;0.30;;;26.40;99.90;;;;;;5053333;28;20441;-77
2022/09/12 09:10:13;;;;;;;0.50;0.30;;;26.10;99.90;;;;;;5050247;28;20452;-77
2022/09/12 09:12:51;;;;;;;0.50;0.30;;;26.00;99.90;;;;;;5052331;28;20837;-75
2022/09/12 09:15:41;;;;;;;0.60;0.60;;;26.20;99.90;;;;;;5052876;28;20436;-77
2022/09/12 09:18:15;;;;;;;0.50;0.30;;;27.00;99.90;;;;;;5052750;28;20445;-77
2022/09/12 09:20:48;;;;;;;0.50;0.30;;;29.00;99.90;;;;;;5052914;28;20491;-77
2022/09/12 09:23:22;;;;;;;0.50;0.30;;;30.00;99.50;;;;;;5051326;28;20475;-77
2022/09/12 09:25:53;;;;;;;0.87;0.50;;;30.60;93.80;;;;;;5052312;28;20461;-77
2022/09/12 09:28:25;;;;;;;0.50;0.30;;;30.20;91.40;;;;;;5052441;28;20987;-77
2022/09/12 09:30:52;;;;;;;3.63;1.23;;;29.60;90.20;;;;;;5052438;28;20554;-77
2022/09/12 09:33:25;;;;;;;0.50;0.33;;;29.50;94.10;;;;;;5052498;28;20457;-78
2022/09/12 09:36:03;;;;;;;0.70;0.70;;;30.30;90.60;;;;;;5052176;28;20433;-78
2022/09/12 09:38:41;;;;;;;0.50;0.30;;;31.70;86.80;;;;;;5052993;28;20452;-76
2022/09/12 09:41:34;;;;;;;0.50;0.50;;;33.00;81.90;;;;;;5052115;28;20431;-77
2022/09/12 09:44:03;;;;;;;1.50;1.40;;;32.90;76.60;;;;;;5051636;28;20588;-77
2022/09/12 09:46:30;;;;;;;1.60;1.50;;;32.40;73.60;;;;;;5052036;28;20437;-77
2022/09/12 09:48:59;;;;;;;0.50;0.30;;;31.50;73.80;;;;;;5051595;28;20536;-77
2022/09/12 09:51:32;;;;;;;0.50;0.30;;;31.50;76.90;;;;;;5051675;28;20956;-77
2022/09/12 09:54:05;;;;;;;0.50;0.30;;;31.40;75.00;;;;;;5051467;28;20480;-77
2022/09/12 09:56:34;;;;;;;0.50;0.30;;;31.60;78.40;;;;;;5051845;28;20465;-77
2022/09/12 09:59:11;;;;;;;0.50;0.30;;;32.50;78.20;;;;;;5051172;28;20529;-75
2022/09/12 10:01:44;;;;;;;0.50;0.30;;;34.10;75.00;;;;;;5052419;28;20432;-78
2022/09/12 10:04:21;;;;;;;1.43;0.70;;;35.50;67.70;;;;;;5051761;28;20491;-77
2022/09/12 10:06:48;;;;;;;0.47;0.30;;;36.00;61.10;;;;;;5051909;28;20774;-77
2022/09/12 10:09:21;;;;;;;2.60;1.30;;;35.20;61.90;;;;;;5051269;28;20451;-77
2022/09/12 10:11:49;;;;;;;0.70;0.67;;;34.60;60.00;;;;;;5051344;28;20437;-76
2022/09/12 10:14:38;;;;;;;0.50;0.30;;;33.40;61.30;;;;;;5051227;28;20444;-76
2022/09/12 10:17:27;;;;;;;1.47;1.33;;;32.80;65.10;;;;;;5052066;28;20440;-77
2022/09/12 10:19:55;;;;;;;0.50;0.30;;;32.80;63.80;;;;;;5051116;28;20441;-77
2022/09/12 10:22:25;;;;;;;0.50;0.30;;;33.40;69.20;;;;;;5051440;28;20461;-77
2022/09/12 10:24:53;;;;;;;0.50;0.30;;;33.90;67.20;;;;;;5051416;28;20483;-77
2022/09/12 10:27:23;;;;;;;0.50;0.30;;;34.50;65.90;;;;;;5051637;28;20478;-77
2022/09/12 10:29:55;;;;;;;0.80;0.50;;;35.20;61.50;;;;;;5051054;28;20491;-78
2022/09/12 10:32:28;;;;;;;0.70;0.50;;;34.90;58.10;;;;;;5051487;28;20463;-75
2022/09/12 10:34:58;;;;;;;0.50;0.40;;;34.50;58.00;;;;;;5049886;28;20500;-73
2022/09/12 10:37:30;;;;;;;0.50;0.30;;;33.90;58.30;;;;;;5051457;28;20445;-77
2022/09/12 10:39:59;;;;;;;0.73;0.60;;;33.00;59.70;;;;;;5051376;28;20788;-77
2022/09/12 10:42:47;;;;;;;0.50;0.40;;;32.40;61.10;;;;;;5050973;28;20548;-77
2022/09/12 10:45:28;;;;;;;0.60;0.50;;;32.20;62.80;;;;;;5050264;28;20913;-77
2022/09/12 10:47:57;;;;;;;0.50;0.30;;;32.60;63.00;;;;;;5051099;28;20943;-78
2022/09/12 10:50:28;;;;;;;0.50;0.30;;;33.10;60.10;;;;;;5050846;28;20961;-78
2022/09/12 10:52:55;;;;;;;0.50;0.40;;;33.50;62.00;;;;;;5050763;28;20536;-77
2022/09/12 10:55:32;;;;;;;0.50;0.30;;;33.20;60.80;;;;;;5050910;28;20441;-78
2022/09/12 10:58:28;;;;;;;0.50;0.30;;;33.50;62.80;;;;;;5050623;28;20480;-74
2022/09/12 11:01:05;;;;;;;0.50;0.30;;;34.20;60.00;;;;;;5051109;28;20437;-77
2022/09/12 11:03:53;;;;;;;0.50;0.30;;;34.60;58.00;;;;;;5051386;28;20555;-79
2022/09/12 11:06:31;;;;;;;0.80;0.80;;;34.90;57.50;;;;;;5050557;28;20950;-77
2022/09/12 11:09:05;;;;;;;0.60;0.40;;;34.80;57.60;;;;;;5051196;28;20437;-78
2022/09/12 11:11:56;;;;;;;0.50;0.30;;;34.70;56.40;;;;;;5051108;28;20519;-77
2022/09/12 11:14:35;;;;;;;0.50;0.30;;;34.70;57.70;;;;;;5050539;28;20420;-77
2022/09/12 11:17:18;;;;;;;0.50;0.30;;;34.30;55.40;;;;;;5050996;28;20459;-78
2022/09/12 11:19:59;;;;;;;0.50;0.30;;;34.10;55.90;;;;;;5050434;28;20437;-78
2022/09/12 11:22:40;;;;;;;0.50;0.30;;;33.90;57.50;;;;;;5050896;28;20461;-78
2022/09/12 11:25:25;;;;;;;0.70;0.50;;;34.50;56.50;;;;;;5050756;28;20461;-78
2022/09/12 11:28:06;;;;;;;0.50;0.30;;;35.00;55.50;;;;;;5050425;28;20818;-78
2022/09/12 11:30:41;;;;;;;0.40;0.30;;;34.90;56.90;;;;;;5050730;28;20529;-77
2022/09/12 11:33:21;;;;;;;0.70;0.47;;;35.20;56.10;;;;;;5050434;28;20464;-78
2022/09/12 11:35:50;;;;;;;0.47;0.30;;;35.20;53.60;;;;;;5050603;28;20814;-77
2022/09/12 11:38:39;;;;;;;0.50;0.40;;;34.70;55.00;;;;;;5050132;28;20526;-77
2022/09/12 11:41:09;;;;;;;0.50;0.30;;;34.60;54.60;;;;;;5050421;28;20895;-78
2022/09/12 11:43:41;;;;;;;0.50;0.40;;;33.80;55.70;;;;;;5050260;28;20980;-77
2022/09/12 11:46:17;;;;;;;1.00;0.73;;;33.80;55.60;;;;;;5051334;28;20483;-77
2022/09/12 11:48:53;;;;;;;0.50;0.30;;;32.80;55.90;;;;;;5054722;28;20432;-76
2022/09/12 11:51:25;;;;;;;0.50;0.40;;;32.50;56.70;;;;;;5054161;28;20467;-77
2022/09/12 11:54:02;;;;;;;0.50;0.50;;;33.20;57.80;;;;;;5053882;28;20502;-74
2022/09/12 11:56:29;;;;;;;0.50;0.30;;;34.00;59.30;;;;;;5054937;28;20527;-79
2022/09/12 11:59:03;;;;;;;0.70;0.40;;;34.80;56.50;;;;;;5053813;28;20437;-77
2022/09/12 12:01:35;;;;;;;0.50;0.30;;;34.90;54.50;;;;;;5054273;28;20444;-78
2022/09/12 12:04:10;;;;;;;0.47;0.30;;;34.80;54.60;;;;;;5053672;28;20469;-77
2022/09/12 12:06:47;;;;;;;0.47;0.30;;;35.10;54.80;;;;;;5054377;28;20482;-77
2022/09/12 12:09:14;;;;;;;0.70;0.63;;;35.40;54.40;;;;;;5054014;28;20429;-77
2022/09/12 12:11:46;;;;;;;0.50;0.30;;;35.30;52.40;;;;;;5054226;28;20444;-77
2022/09/12 12:14:18;;;;;;;0.50;0.40;;;34.50;53.80;;;;;;5053514;28;20859;-78
2022/09/12 12:16:46;;;;;;;0.53;0.53;;;35.10;54.10;;;;;;5053918;28;20527;-78
2022/09/12 12:19:34;;;;;;;0.50;0.30;;;34.30;55.30;;;;;;5054004;28;20536;-77
2022/09/12 12:22:16;;;;;;;0.50;0.30;;;34.30;56.50;;;;;;5053744;28;20445;-77
2022/09/12 12:25:24;;;;;;;0.50;0.40;;;34.40;56.70;;;;;;5052926;28;20481;-78
2022/09/12 12:27:54;;;;;;;0.50;0.30;;;34.00;55.00;;;;;;5023869;28;20452;-77
2022/09/12 12:30:58;;;;;;;0.60;0.50;;;34.30;54.80;;;;;;5053643;28;20440;-78
2022/09/12 12:33:55;;;;;;;0.50;0.30;;;33.30;55.40;;;;;;5053271;28;20997;-77
2022/09/12 12:36:41;;;;;;;0.50;0.30;;;32.50;55.80;;;;;;5053564;28;20439;-78
2022/09/12 12:39:48;;;;;;;0.50;0.30;;;32.70;56.20;;;;;;5053964;28;20790;-76
2022/09/12 12:43:04;;;;;;;0.50;0.30;;;33.20;55.30;;;;;;5053087;28;20472;-76
2022/09/12 12:45:59;;;;;;;0.50;0.30;;;33.40;57.50;;;;;;5052781;28;20583;-77
2022/09/12 12:48:29;;;;;;;0.50;0.30;;;33.70;55.20;;;;;;5053228;28;20461;-78
2022/09/12 12:51:26;;;;;;;0.63;0.60;;;33.60;55.20;;;;;;5053004;28;20527;-76
2022/09/12 12:53:55;;;;;;;0.50;0.40;;;33.40;53.90;;;;;;5052744;28;20970;-76
2022/09/12 12:56:43;;;;;;;0.50;0.30;;;32.60;55.60;;;;;;5052903;28;20433;-76
2022/09/12 12:59:18;;;;;;;0.50;0.30;;;32.40;56.30;;;;;;5047664;28;20539;-76
2022/09/12 13:01:49;;;;;;;0.50;0.30;;;32.50;56.90;;;;;;5020748;28;20433;-76
2022/09/12 13:04:19;;;;;;;0.50;0.40;;;33.00;55.90;;;;;;5052769;28;20444;-76
2022/09/12 13:06:55;;;;;;;0.47;0.30;;;33.30;55.40;;;;;;5052252;28;20480;-76
2022/09/12 13:09:27;;;;;;;0.50;0.30;;;33.50;53.10;;;;;;5052651;28;20536;-78
2022/09/12 13:12:01;;;;;;;0.50;0.30;;;33.50;53.60;;;;;;5052698;28;20424;-75
2022/09/12 13:14:47;;;;;;;0.50;0.30;;;33.60;52.40;;;;;;5052464;28;20436;-76